Babuskin, Russia
Current Conditions -  °F | °C
As of 9:00 PM on Friday 24 Oct 2014 (Local Time) from UIUU Reporting Station
Overcast Overcast  
Wind Chill: 32°   Ceiling: 10000
Heat Index: 37°   Visibility: 6mi
Dew Point: 25°   Wind: 7mph
Humidity: 60%   Direction: 340°NNW
Pressure: 29.83"   Gusts: NA
Location:  51.72°N, 105.85°E
Report Text: UIUU 241300Z 34003MPS 9999 SCT033CB OVC100 03/M04 Q1010 NOSIGRMK QFE714/0952 26CLRD60
Loading
Personal Weather Stations






























Interactive Weather Map
Tropical Storm Tracking
New forecast layout! Learn more

10-Day Weather Forecast

Advertisements
Track Severe Weather on mobile